Etusivu
METAR-TAF:

METAR-TAF

Lentoasemat :

Phillip Goldston

Belize City, Belize

Leveyspiiri: 17-32N, Pituuspiiri: 088-18W, korkeus merenpinnasta: 5 m

Tämänhetkinen sää

Tämä raportti tehtiin 20 minuuttia sitten, kello 11.00 UTC
Tuuli 3 kn idästä
Lämpötila 25°C
Kosteus 94%
Ilmanpaine 1010 hPa
Näkyvyys 10 km tai enemmän
Muutamia pilviä 1500 ft:n korkeudessa

METAR: MZBZ 261100Z 10003KT 9999 FEW015 25/24 A2983 Q1010 NOSIG

Aika: 05:20 (11:20 UTC)

Sääennuste

Tämä raportti tehtiin 14 tuntia ja 20 minuuttia sitten, kello 21.00 UTC
Ennuste voimassa 26. päivästä klo 00 UTC - 26. päivään klo 24 UTC
Tuuli 10 kn idästä/kaakosta
Näkyvyys 10 km tai enemmän
Hajanaisia pilviä 2300 ft:n korkeudessa
Tulossa
26. päivästä klo 06 UTC - 26. päivään klo 08 UTC
Tuuli 3 kn eri suunnista

TAF: MZBZ 252100Z 2600/2624 11010KT 9999 SCT023 BECMG 2606/2608 VRB03KT

Säähavainnot ja -ennusteet yli 4000 lentoasemalta (METAR- ja TAF-raportit).

Käytössä olevat sääasemat on merkitty karttaan keltaisilla ja punaisilla pisteillä.

Aseta hiiri pisteen päälle nähdäksesi sääaseman nimen.

Klikkaa sitten nähdäksesi säähavainnot ja -ennusteet.

Kartan vaihtaminen: klikkaa mustalla rastilla varustettuja vihreitä pisteitä, niin voit zoomata sisään; viivalla varustettua vihreää pistettä, niin voit zoomata ulos tai vihreitä nuolia, niin pääset viereisille kartoille.


METAR-TAF: